sensor_id;sensor_type;location;lat;lon;timestamp;pressure;altitude;pressure_sealevel;temperature;humidity
32320;BME280;19080;51.750;5.888;2023-08-31T00:01:00;100617.88;;;11.01;100.00
32320;BME280;19080;51.750;5.888;2023-08-31T00:03:27;100607.22;;;10.96;100.00
32320;BME280;19080;51.750;5.888;2023-08-31T00:05:55;100599.16;;;10.87;100.00
32320;BME280;19080;51.750;5.888;2023-08-31T00:08:22;100597.34;;;10.83;100.00
32320;BME280;19080;51.750;5.888;2023-08-31T00:10:58;100594.69;;;10.82;100.00
32320;BME280;19080;51.750;5.888;2023-08-31T00:13:27;100521.66;;;10.34;100.00
32320;BME280;19080;51.750;5.888;2023-08-31T00:15:55;100604.34;;;10.75;100.00
32320;BME280;19080;51.750;5.888;2023-08-31T00:18:25;100544.69;;;10.41;100.00
32320;BME280;19080;51.750;5.888;2023-08-31T00:20:52;100424.56;;;9.69;100.00
32320;BME280;19080;51.750;5.888;2023-08-31T00:23:19;100512.56;;;10.15;100.00
32320;BME280;19080;51.750;5.888;2023-08-31T00:25:47;100540.22;;;10.32;100.00
32320;BME280;19080;51.750;5.888;2023-08-31T00:28:15;100565.94;;;10.42;100.00
32320;BME280;19080;51.750;5.888;2023-08-31T00:30:42;100596.16;;;10.55;100.00
32320;BME280;19080;51.750;5.888;2023-08-31T00:33:12;100593.50;;;10.54;100.00
32320;BME280;19080;51.750;5.888;2023-08-31T00:35:40;100603.25;;;10.58;100.00
32320;BME280;19080;51.750;5.888;2023-08-31T00:38:13;100606.75;;;10.54;100.00
32320;BME280;19080;51.750;5.888;2023-08-31T00:40:41;100594.31;;;10.50;100.00
32320;BME280;19080;51.750;5.888;2023-08-31T00:43:12;100561.47;;;10.35;100.00
32320;BME280;19080;51.750;5.888;2023-08-31T00:45:42;100561.38;;;10.26;100.00
32320;BME280;19080;51.750;5.888;2023-08-31T00:48:11;100508.78;;;9.93;100.00
32320;BME280;19080;51.750;5.888;2023-08-31T00:50:38;100599.66;;;10.53;100.00
32320;BME280;19080;51.750;5.888;2023-08-31T00:53:05;100483.84;;;9.79;100.00
32320;BME280;19080;51.750;5.888;2023-08-31T00:55:32;100523.94;;;10.03;100.00
32320;BME280;19080;51.750;5.888;2023-08-31T00:58:00;100577.41;;;10.35;100.00
32320;BME280;19080;51.750;5.888;2023-08-31T01:00:58;100595.13;;;10.42;100.00
32320;BME280;19080;51.750;5.888;2023-08-31T01:03:43;100574.59;;;10.23;100.00
32320;BME280;19080;51.750;5.888;2023-08-31T01:06:52;100574.63;;;10.26;100.00
32320;BME280;19080;51.750;5.888;2023-08-31T01:12:18;100520.97;;;9.79;100.00
32320;BME280;19080;51.750;5.888;2023-08-31T01:14:56;100568.06;;;10.00;100.00
32320;BME280;19080;51.750;5.888;2023-08-31T01:17:28;100534.19;;;9.77;100.00
32320;BME280;19080;51.750;5.888;2023-08-31T01:19:58;100576.97;;;10.05;100.00
32320;BME280;19080;51.750;5.888;2023-08-31T01:22:37;100602.84;;;10.20;100.00
32320;BME280;19080;51.750;5.888;2023-08-31T01:25:07;100589.44;;;10.12;100.00
32320;BME280;19080;51.750;5.888;2023-08-31T01:27:37;100592.09;;;10.12;100.00
32320;BME280;19080;51.750;5.888;2023-08-31T01:30:05;100602.00;;;10.22;100.00
32320;BME280;19080;51.750;5.888;2023-08-31T01:32:32;100591.44;;;10.28;100.00
32320;BME280;19080;51.750;5.888;2023-08-31T01:35:00;100613.78;;;10.50;100.00
32320;BME280;19080;51.750;5.888;2023-08-31T01:37:47;100610.31;;;10.56;100.00
32320;BME280;19080;51.750;5.888;2023-08-31T01:42:54;100612.34;;;10.80;100.00
32320;BME280;19080;51.750;5.888;2023-08-31T01:45:22;100614.25;;;10.93;100.00
32320;BME280;19080;51.750;5.888;2023-08-31T01:47:49;100624.13;;;11.04;100.00
32320;BME280;19080;51.750;5.888;2023-08-31T01:50:17;100540.66;;;10.78;100.00
32320;BME280;19080;51.750;5.888;2023-08-31T01:52:44;100593.22;;;11.16;100.00
32320;BME280;19080;51.750;5.888;2023-08-31T01:55:11;100559.47;;;11.02;100.00
32320;BME280;19080;51.750;5.888;2023-08-31T01:57:42;100586.25;;;11.28;100.00
32320;BME280;19080;51.750;5.888;2023-08-31T02:00:16;100581.00;;;11.34;100.00
32320;BME280;19080;51.750;5.888;2023-08-31T02:02:46;100614.91;;;11.67;100.00
32320;BME280;19080;51.750;5.888;2023-08-31T02:05:13;100511.78;;;11.19;100.00
32320;BME280;19080;51.750;5.888;2023-08-31T02:07:40;100568.75;;;11.58;100.00
32320;BME280;19080;51.750;5.888;2023-08-31T02:10:07;100608.84;;;11.87;100.00
32320;BME280;19080;51.750;5.888;2023-08-31T02:12:34;100591.13;;;11.86;100.00
32320;BME280;19080;51.750;5.888;2023-08-31T02:15:06;100608.06;;;12.04;100.00
32320;BME280;19080;51.750;5.888;2023-08-31T02:17:36;100602.75;;;12.03;100.00
32320;BME280;19080;51.750;5.888;2023-08-31T02:20:03;100575.19;;;11.89;100.00
32320;BME280;19080;51.750;5.888;2023-08-31T02:22:35;100585.00;;;12.03;100.00
32320;BME280;19080;51.750;5.888;2023-08-31T02:25:02;100514.75;;;11.66;100.00
32320;BME280;19080;51.750;5.888;2023-08-31T02:27:28;100606.34;;;12.22;100.00
32320;BME280;19080;51.750;5.888;2023-08-31T02:29:55;100605.47;;;12.24;100.00
32320;BME280;19080;51.750;5.888;2023-08-31T02:32:22;100577.94;;;12.16;100.00
32320;BME280;19080;51.750;5.888;2023-08-31T02:34:49;100596.63;;;12.28;100.00
32320;BME280;19080;51.750;5.888;2023-08-31T02:37:16;100596.66;;;12.31;100.00
32320;BME280;19080;51.750;5.888;2023-08-31T02:39:43;100601.09;;;12.35;100.00
32320;BME280;19080;51.750;5.888;2023-08-31T02:42:10;100609.13;;;12.45;100.00
32320;BME280;19080;51.750;5.888;2023-08-31T02:44:37;100610.00;;;12.42;100.00
32320;BME280;19080;51.750;5.888;2023-08-31T02:47:03;100612.69;;;12.53;100.00
32320;BME280;19080;51.750;5.888;2023-08-31T02:49:30;100611.78;;;12.49;100.00
32320;BME280;19080;51.750;5.888;2023-08-31T02:51:57;100617.13;;;12.54;100.00
32320;BME280;19080;51.750;5.888;2023-08-31T02:54:24;100622.50;;;12.61;100.00
32320;BME280;19080;51.750;5.888;2023-08-31T02:56:50;100615.41;;;12.65;100.00
32320;BME280;19080;51.750;5.888;2023-08-31T02:59:17;100572.75;;;12.50;100.00
32320;BME280;19080;51.750;5.888;2023-08-31T03:01:44;100574.53;;;12.46;100.00
32320;BME280;19080;51.750;5.888;2023-08-31T03:04:13;100556.72;;;12.34;100.00
32320;BME280;19080;51.750;5.888;2023-08-31T03:06:40;100607.44;;;12.71;100.00
32320;BME280;19080;51.750;5.888;2023-08-31T03:09:06;100443.88;;;11.71;100.00
32320;BME280;19080;51.750;5.888;2023-08-31T03:11:34;100562.06;;;12.39;100.00
32320;BME280;19080;51.750;5.888;2023-08-31T03:14:00;100555.84;;;12.32;100.00
32320;BME280;19080;51.750;5.888;2023-08-31T03:16:27;100570.03;;;12.34;100.00
32320;BME280;19080;51.750;5.888;2023-08-31T03:18:54;100526.47;;;11.99;100.00
32320;BME280;19080;51.750;5.888;2023-08-31T03:21:20;100536.22;;;12.00;100.00
32320;BME280;19080;51.750;5.888;2023-08-31T03:23:47;100530.00;;;11.95;100.00
32320;BME280;19080;51.750;5.888;2023-08-31T03:26:14;100611.75;;;12.40;100.00
32320;BME280;19080;51.750;5.888;2023-08-31T03:28:40;100599.31;;;12.36;100.00
32320;BME280;19080;51.750;5.888;2023-08-31T03:31:07;100578.88;;;12.27;100.00
32320;BME280;19080;51.750;5.888;2023-08-31T03:33:34;100608.22;;;12.46;100.00
32320;BME280;19080;51.750;5.888;2023-08-31T03:36:02;100604.69;;;12.47;100.00
32320;BME280;19080;51.750;5.888;2023-08-31T03:38:32;100596.69;;;12.47;100.00
32320;BME280;19080;51.750;5.888;2023-08-31T03:41:04;100591.38;;;12.50;100.00
32320;BME280;19080;51.750;5.888;2023-08-31T03:43:31;100594.06;;;12.53;100.00
32320;BME280;19080;51.750;5.888;2023-08-31T03:45:59;100499.91;;;12.03;100.00
32320;BME280;19080;51.750;5.888;2023-08-31T03:48:26;100561.19;;;12.37;100.00
32320;BME280;19080;51.750;5.888;2023-08-31T03:50:53;100548.72;;;12.24;100.00
32320;BME280;19080;51.750;5.888;2023-08-31T03:53:21;100554.03;;;12.25;100.00
32320;BME280;19080;51.750;5.888;2023-08-31T03:55:51;100605.59;;;12.55;100.00
32320;BME280;19080;51.750;5.888;2023-08-31T03:58:18;100615.41;;;12.66;100.00
32320;BME280;19080;51.750;5.888;2023-08-31T04:00:49;100594.97;;;12.58;100.00
32320;BME280;19080;51.750;5.888;2023-08-31T04:03:19;100612.75;;;12.74;100.00
32320;BME280;19080;51.750;5.888;2023-08-31T04:05:47;100589.63;;;12.58;100.00
32320;BME280;19080;51.750;5.888;2023-08-31T04:08:14;100578.97;;;12.52;100.00
32320;BME280;19080;51.750;5.888;2023-08-31T04:10:40;100539.88;;;12.31;100.00
32320;BME280;19080;51.750;5.888;2023-08-31T04:13:07;100562.09;;;12.44;100.00
32320;BME280;19080;51.750;5.888;2023-08-31T04:15:34;100592.28;;;12.49;100.00
32320;BME280;19080;51.750;5.888;2023-08-31T04:18:01;100611.81;;;12.58;100.00
32320;BME280;19080;51.750;5.888;2023-08-31T04:20:28;100591.38;;;12.42;100.00
32320;BME280;19080;51.750;5.888;2023-08-31T04:22:54;100612.69;;;12.48;100.00
32320;BME280;19080;51.750;5.888;2023-08-31T04:25:21;100594.88;;;12.30;100.00
32320;BME280;19080;51.750;5.888;2023-08-31T04:27:48;100627.75;;;12.46;100.00
32320;BME280;19080;51.750;5.888;2023-08-31T04:30:15;100636.63;;;12.48;100.00
32320;BME280;19080;51.750;5.888;2023-08-31T04:32:43;100630.44;;;12.51;100.00
32320;BME280;19080;51.750;5.888;2023-08-31T04:35:11;100577.97;;;12.12;100.00
32320;BME280;19080;51.750;5.888;2023-08-31T04:37:37;100596.59;;;12.18;100.00
32320;BME280;19080;51.750;5.888;2023-08-31T04:40:04;100639.25;;;12.37;100.00
32320;BME280;19080;51.750;5.888;2023-08-31T04:42:31;100536.91;;;11.65;100.00
32320;BME280;19080;51.750;5.888;2023-08-31T04:44:58;100648.91;;;12.19;100.00
32320;BME280;19080;51.750;5.888;2023-08-31T04:47:25;100617.72;;;11.87;100.00
32320;BME280;19080;51.750;5.888;2023-08-31T04:49:51;100643.44;;;11.90;100.00
32320;BME280;19080;51.750;5.888;2023-08-31T04:52:18;100630.88;;;11.70;100.00
32320;BME280;19080;51.750;5.888;2023-08-31T04:54:45;100647.72;;;11.72;100.00
32320;BME280;19080;51.750;5.888;2023-08-31T04:57:11;100648.56;;;11.65;100.00
32320;BME280;19080;51.750;5.888;2023-08-31T04:59:38;100679.66;;;11.76;100.00
32320;BME280;19080;51.750;5.888;2023-08-31T05:02:04;100652.91;;;11.54;100.00
32320;BME280;19080;51.750;5.888;2023-08-31T05:04:31;100668.03;;;11.61;100.00
32320;BME280;19080;51.750;5.888;2023-08-31T05:06:58;100655.53;;;11.51;100.00
32320;BME280;19080;51.750;5.888;2023-08-31T05:09:25;100701.75;;;11.68;100.00
32320;BME280;19080;51.750;5.888;2023-08-31T05:11:51;100640.34;;;11.35;100.00
32320;BME280;19080;51.750;5.888;2023-08-31T05:14:18;100684.00;;;11.64;100.00
32320;BME280;19080;51.750;5.888;2023-08-31T05:16:45;100658.13;;;11.45;100.00
32320;BME280;19080;51.750;5.888;2023-08-31T05:19:12;100679.47;;;11.54;100.00
32320;BME280;19080;51.750;5.888;2023-08-31T05:21:38;100709.75;;;11.71;100.00
32320;BME280;19080;51.750;5.888;2023-08-31T05:24:05;100681.34;;;11.64;100.00
32320;BME280;19080;51.750;5.888;2023-08-31T05:26:32;100678.78;;;11.75;100.00
32320;BME280;19080;51.750;5.888;2023-08-31T05:29:02;100694.06;;;11.99;100.00
32320;BME280;19080;51.750;5.888;2023-08-31T05:31:31;100646.09;;;11.87;100.00
32320;BME280;19080;51.750;5.888;2023-08-31T05:33:58;100687.06;;;12.19;100.00
32320;BME280;19080;51.750;5.888;2023-08-31T05:36:24;100710.25;;;12.40;100.00
32320;BME280;19080;51.750;5.888;2023-08-31T05:38:51;100712.03;;;12.39;100.00
32320;BME280;19080;51.750;5.888;2023-08-31T05:41:18;100696.94;;;12.40;100.00
32320;BME280;19080;51.750;5.888;2023-08-31T05:43:45;100712.97;;;12.54;100.00
32320;BME280;19080;51.750;5.888;2023-08-31T05:46:12;100706.81;;;12.61;100.00
32320;BME280;19080;51.750;5.888;2023-08-31T05:48:38;100680.13;;;12.52;100.00
32320;BME280;19080;51.750;5.888;2023-08-31T05:51:05;100662.34;;;12.45;100.00
32320;BME280;19080;51.750;5.888;2023-08-31T05:53:32;100696.19;;;12.68;100.00
32320;BME280;19080;51.750;5.888;2023-08-31T05:56:00;100715.75;;;12.78;100.00
32320;BME280;19080;51.750;5.888;2023-08-31T05:58:34;100725.53;;;12.82;100.00
32320;BME280;19080;51.750;5.888;2023-08-31T06:01:03;100521.84;;;11.64;100.00
32320;BME280;19080;51.750;5.888;2023-08-31T06:03:30;100712.16;;;12.70;100.00
32320;BME280;19080;51.750;5.888;2023-08-31T06:05:58;100708.56;;;12.57;100.00
32320;BME280;19080;51.750;5.888;2023-08-31T06:08:25;100705.03;;;12.63;100.00
32320;BME280;19080;51.750;5.888;2023-08-31T06:10:52;100636.53;;;12.27;100.00
32320;BME280;19080;51.750;5.888;2023-08-31T06:13:18;100726.44;;;12.87;100.00
32320;BME280;19080;51.750;5.888;2023-08-31T06:15:45;100739.84;;;13.12;100.00
32320;BME280;19080;51.750;5.888;2023-08-31T06:18:12;100634.97;;;12.82;100.00
32320;BME280;19080;51.750;5.888;2023-08-31T06:20:39;100740.91;;;13.73;100.00
32320;BME280;19080;51.750;5.888;2023-08-31T06:23:06;100735.56;;;13.82;100.00
32320;BME280;19080;51.750;5.888;2023-08-31T06:25:33;100732.00;;;13.82;100.00
32320;BME280;19080;51.750;5.888;2023-08-31T06:28:00;100723.09;;;13.95;100.00
32320;BME280;19080;51.750;5.888;2023-08-31T06:30:27;100725.72;;;14.18;100.00
32320;BME280;19080;51.750;5.888;2023-08-31T06:32:54;100692.81;;;14.05;100.00
32320;BME280;19080;51.750;5.888;2023-08-31T06:35:20;100747.94;;;14.40;100.00
32320;BME280;19080;51.750;5.888;2023-08-31T06:37:47;100726.56;;;14.40;100.00
32320;BME280;19080;51.750;5.888;2023-08-31T06:40:14;100726.56;;;14.55;100.00
32320;BME280;19080;51.750;5.888;2023-08-31T06:42:40;100718.47;;;14.84;100.00
32320;BME280;19080;51.750;5.888;2023-08-31T06:45:08;100752.13;;;15.24;100.00
32320;BME280;19080;51.750;5.888;2023-08-31T06:47:35;100762.66;;;15.52;100.00
32320;BME280;19080;51.750;5.888;2023-08-31T06:50:02;100685.13;;;15.44;100.00
32320;BME280;19080;51.750;5.888;2023-08-31T06:52:30;100681.50;;;15.57;100.00
32320;BME280;19080;51.750;5.888;2023-08-31T06:54:58;100676.16;;;15.54;100.00
32320;BME280;19080;51.750;5.888;2023-08-31T06:57:26;100683.22;;;15.61;100.00
32320;BME280;19080;51.750;5.888;2023-08-31T06:59:53;100737.91;;;16.33;100.00
32320;BME280;19080;51.750;5.888;2023-08-31T07:02:20;100758.13;;;16.66;100.00
32320;BME280;19080;51.750;5.888;2023-08-31T07:04:49;100702.22;;;16.29;100.00
32320;BME280;19080;51.750;5.888;2023-08-31T07:07:16;100710.41;;;16.17;100.00
32320;BME280;19080;51.750;5.888;2023-08-31T07:09:44;100769.94;;;16.45;100.00
32320;BME280;19080;51.750;5.888;2023-08-31T07:12:10;100765.28;;;16.65;100.00
32320;BME280;19080;51.750;5.888;2023-08-31T07:14:38;100772.75;;;17.14;100.00
32320;BME280;19080;51.750;5.888;2023-08-31T07:17:05;100770.66;;;17.34;100.00
32320;BME280;19080;51.750;5.888;2023-08-31T07:19:31;100660.25;;;17.05;100.00
32320;BME280;19080;51.750;5.888;2023-08-31T07:22:01;100741.50;;;17.73;100.00
32320;BME280;19080;51.750;5.888;2023-08-31T07:24:30;100774.50;;;18.33;100.00
32320;BME280;19080;51.750;5.888;2023-08-31T07:26:57;100753.06;;;18.30;100.00
32320;BME280;19080;51.750;5.888;2023-08-31T07:29:24;100781.53;;;18.42;100.00
32320;BME280;19080;51.750;5.888;2023-08-31T07:31:51;100746.38;;;18.03;100.00
32320;BME280;19080;51.750;5.888;2023-08-31T07:34:18;100743.19;;;17.80;100.00
32320;BME280;19080;51.750;5.888;2023-08-31T07:36:44;100726.47;;;17.60;100.00
32320;BME280;19080;51.750;5.888;2023-08-31T07:39:11;100773.47;;;17.88;100.00
32320;BME280;19080;51.750;5.888;2023-08-31T07:41:38;100787.81;;;17.87;100.00
32320;BME280;19080;51.750;5.888;2023-08-31T07:44:05;100796.72;;;17.91;100.00
32320;BME280;19080;51.750;5.888;2023-08-31T07:46:32;100793.94;;;17.97;100.00
32320;BME280;19080;51.750;5.888;2023-08-31T07:48:59;100801.00;;;18.02;100.00
32320;BME280;19080;51.750;5.888;2023-08-31T07:51:25;100807.38;;;17.97;100.00
32320;BME280;19080;51.750;5.888;2023-08-31T07:53:52;100783.94;;;18.06;100.00
32320;BME280;19080;51.750;5.888;2023-08-31T07:56:19;100771.44;;;18.54;100.00
32320;BME280;19080;51.750;5.888;2023-08-31T07:58:46;100771.53;;;18.98;100.00
32320;BME280;19080;51.750;5.888;2023-08-31T08:01:12;100767.97;;;18.96;100.00
32320;BME280;19080;51.750;5.888;2023-08-31T08:03:39;100806.69;;;19.30;100.00
32320;BME280;19080;51.750;5.888;2023-08-31T08:06:06;100795.47;;;19.52;100.00
32320;BME280;19080;51.750;5.888;2023-08-31T08:08:33;100742.72;;;19.81;100.00
32320;BME280;19080;51.750;5.888;2023-08-31T08:10:59;100808.34;;;20.84;100.00
32320;BME280;19080;51.750;5.888;2023-08-31T08:13:26;100808.13;;;21.24;100.00
32320;BME280;19080;51.750;5.888;2023-08-31T08:15:53;100814.41;;;20.92;100.00
32320;BME280;19080;51.750;5.888;2023-08-31T08:18:19;100808.97;;;20.94;100.00
32320;BME280;19080;51.750;5.888;2023-08-31T08:20:52;100807.75;;;20.74;100.00
32320;BME280;19080;51.750;5.888;2023-08-31T08:23:19;100813.94;;;21.09;100.00
32320;BME280;19080;51.750;5.888;2023-08-31T08:25:48;100756.09;;;21.18;100.00
32320;BME280;19080;51.750;5.888;2023-08-31T08:28:15;100801.47;;;21.65;100.00
32320;BME280;19080;51.750;5.888;2023-08-31T08:30:41;100778.50;;;21.80;100.00
32320;BME280;19080;51.750;5.888;2023-08-31T08:33:09;100784.81;;;22.08;100.00
32320;BME280;19080;51.750;5.888;2023-08-31T08:35:37;100801.66;;;22.43;100.00
32320;BME280;19080;51.750;5.888;2023-08-31T08:38:04;100810.00;;;22.62;100.00
32320;BME280;19080;51.750;5.888;2023-08-31T08:40:31;100807.84;;;22.71;96.65
32320;BME280;19080;51.750;5.888;2023-08-31T08:43:00;100794.78;;;23.09;93.96
32320;BME280;19080;51.750;5.888;2023-08-31T08:45:36;100801.97;;;22.59;93.15
32320;BME280;19080;51.750;5.888;2023-08-31T08:48:05;100784.28;;;22.24;100.00
32320;BME280;19080;51.750;5.888;2023-08-31T08:50:33;100813.63;;;22.36;92.50
32320;BME280;19080;51.750;5.888;2023-08-31T08:53:02;100812.31;;;21.93;99.38
32320;BME280;19080;51.750;5.888;2023-08-31T08:55:29;100789.91;;;21.90;98.34
32320;BME280;19080;51.750;5.888;2023-08-31T08:57:58;100820.59;;;22.17;97.50
32320;BME280;19080;51.750;5.888;2023-08-31T09:00:26;100810.81;;;22.64;87.26
32320;BME280;19080;51.750;5.888;2023-08-31T09:02:54;100809.72;;;22.69;93.84
32320;BME280;19080;51.750;5.888;2023-08-31T09:05:21;100809.44;;;23.03;88.13
32320;BME280;19080;51.750;5.888;2023-08-31T09:08:05;100800.44;;;23.26;80.79
32320;BME280;19080;51.750;5.888;2023-08-31T09:10:35;100819.03;;;23.60;80.76
32320;BME280;19080;51.750;5.888;2023-08-31T09:13:08;100814.81;;;23.52;71.41
32320;BME280;19080;51.750;5.888;2023-08-31T09:15:38;100819.22;;;23.56;69.77
32320;BME280;19080;51.750;5.888;2023-08-31T09:18:05;100790.16;;;23.36;68.75
32320;BME280;19080;51.750;5.888;2023-08-31T09:20:46;100810.69;;;23.42;73.16
32320;BME280;19080;51.750;5.888;2023-08-31T09:23:14;100817.28;;;23.34;70.42
32320;BME280;19080;51.750;5.888;2023-08-31T09:25:46;100805.88;;;23.50;68.41
32320;BME280;19080;51.750;5.888;2023-08-31T09:28:16;100825.28;;;23.62;68.84
32320;BME280;19080;51.750;5.888;2023-08-31T09:30:45;100760.59;;;23.07;66.13
32320;BME280;19080;51.750;5.888;2023-08-31T09:33:16;100825.75;;;23.25;68.00
32320;BME280;19080;51.750;5.888;2023-08-31T09:35:48;100817.56;;;22.77;70.45
32320;BME280;19080;51.750;5.888;2023-08-31T09:38:17;100821.47;;;23.20;68.74
32320;BME280;19080;51.750;5.888;2023-08-31T09:40:44;100825.72;;;23.02;68.71
32320;BME280;19080;51.750;5.888;2023-08-31T09:43:12;100827.22;;;22.86;69.37
32320;BME280;19080;51.750;5.888;2023-08-31T09:45:45;100831.69;;;22.35;72.88
32320;BME280;19080;51.750;5.888;2023-08-31T09:48:13;100831.94;;;22.28;76.69
32320;BME280;19080;51.750;5.888;2023-08-31T09:50:43;100820.16;;;22.55;77.20
32320;BME280;19080;51.750;5.888;2023-08-31T09:53:11;100789.38;;;23.32;69.61
32320;BME280;19080;51.750;5.888;2023-08-31T09:55:39;100818.16;;;24.27;63.24
32320;BME280;19080;51.750;5.888;2023-08-31T09:58:07;100744.59;;;24.13;61.28
32320;BME280;19080;51.750;5.888;2023-08-31T10:00:42;100818.38;;;24.43;56.60
32320;BME280;19080;51.750;5.888;2023-08-31T10:03:11;100762.88;;;23.64;59.90
32320;BME280;19080;51.750;5.888;2023-08-31T10:05:48;100755.69;;;23.16;60.34
32320;BME280;19080;51.750;5.888;2023-08-31T10:08:16;100823.56;;;23.83;60.42
32320;BME280;19080;51.750;5.888;2023-08-31T10:10:44;100833.91;;;24.81;57.95
32320;BME280;19080;51.750;5.888;2023-08-31T10:13:11;100826.31;;;25.49;55.18
32320;BME280;19080;51.750;5.888;2023-08-31T10:15:41;100810.06;;;25.28;52.60
32320;BME280;19080;51.750;5.888;2023-08-31T10:18:09;100822.56;;;24.92;53.28
32320;BME280;19080;51.750;5.888;2023-08-31T10:20:36;100812.94;;;24.85;52.06
32320;BME280;19080;51.750;5.888;2023-08-31T10:23:03;100764.78;;;23.84;55.01
32320;BME280;19080;51.750;5.888;2023-08-31T10:28:20;100807.88;;;25.37;54.17
32320;BME280;19080;51.750;5.888;2023-08-31T10:31:07;100752.38;;;24.42;51.85
32320;BME280;19080;51.750;5.888;2023-08-31T10:33:45;100807.16;;;24.30;54.12
32320;BME280;19080;51.750;5.888;2023-08-31T10:36:16;100802.72;;;23.62;54.89
32320;BME280;19080;51.750;5.888;2023-08-31T10:41:22;100773.47;;;25.17;53.59
32320;BME280;19080;51.750;5.888;2023-08-31T10:43:54;100762.06;;;25.85;51.29
32320;BME280;19080;51.750;5.888;2023-08-31T10:51:22;100803.91;;;27.07;48.54
32320;BME280;19080;51.750;5.888;2023-08-31T10:53:49;100788.44;;;27.07;45.86
32320;BME280;19080;51.750;5.888;2023-08-31T10:56:17;100794.75;;;26.39;45.67
32320;BME280;19080;51.750;5.888;2023-08-31T10:58:57;100801.41;;;25.39;48.28
32320;BME280;19080;51.750;5.888;2023-08-31T11:01:58;100794.88;;;24.63;50.80
32320;BME280;19080;51.750;5.888;2023-08-31T11:04:27;100808.38;;;24.23;52.32
32320;BME280;19080;51.750;5.888;2023-08-31T11:09:41;100743.91;;;23.41;54.65
32320;BME280;19080;51.750;5.888;2023-08-31T11:12:09;100806.63;;;23.55;56.34
32320;BME280;19080;51.750;5.888;2023-08-31T11:14:36;100768.81;;;24.80;53.03
32320;BME280;19080;51.750;5.888;2023-08-31T11:17:03;100756.47;;;25.88;47.44
32320;BME280;19080;51.750;5.888;2023-08-31T11:19:34;100761.22;;;24.67;47.35
32320;BME280;19080;51.750;5.888;2023-08-31T11:22:02;100786.91;;;23.50;51.62
32320;BME280;19080;51.750;5.888;2023-08-31T11:24:33;100755.06;;;22.35;55.45
32320;BME280;19080;51.750;5.888;2023-08-31T11:27:00;100830.03;;;22.03;63.36
32320;BME280;19080;51.750;5.888;2023-08-31T11:29:30;100869.91;;;20.33;100.00
32320;BME280;19080;51.750;5.888;2023-08-31T11:31:57;100797.81;;;18.33;100.00
32320;BME280;19080;51.750;5.888;2023-08-31T11:34:27;100864.38;;;17.51;100.00
32320;BME280;19080;51.750;5.888;2023-08-31T11:36:53;100874.22;;;16.72;100.00
32320;BME280;19080;51.750;5.888;2023-08-31T11:39:21;100886.13;;;16.35;100.00
32320;BME280;19080;51.750;5.888;2023-08-31T11:41:49;100869.47;;;15.88;100.00
32320;BME280;19080;51.750;5.888;2023-08-31T11:44:16;100885.56;;;15.82;100.00
32320;BME280;19080;51.750;5.888;2023-08-31T11:46:45;100842.81;;;15.73;100.00
32320;BME280;19080;51.750;5.888;2023-08-31T11:49:19;100844.59;;;15.71;100.00
32320;BME280;19080;51.750;5.888;2023-08-31T11:51:48;100875.69;;;15.92;100.00
32320;BME280;19080;51.750;5.888;2023-08-31T11:54:17;100870.34;;;15.92;100.00
32320;BME280;19080;51.750;5.888;2023-08-31T11:56:44;100868.56;;;15.91;100.00
32320;BME280;19080;51.750;5.888;2023-08-31T11:59:18;100869.47;;;15.91;100.00
32320;BME280;19080;51.750;5.888;2023-08-31T12:01:47;100787.66;;;15.45;100.00
32320;BME280;19080;51.750;5.888;2023-08-31T12:04:20;100829.31;;;15.88;100.00
32320;BME280;19080;51.750;5.888;2023-08-31T12:06:50;100848.72;;;16.19;100.00
32320;BME280;19080;51.750;5.888;2023-08-31T12:09:18;100853.97;;;16.35;100.00
32320;BME280;19080;51.750;5.888;2023-08-31T12:11:51;100859.97;;;16.69;100.00
32320;BME280;19080;51.750;5.888;2023-08-31T12:14:23;100856.88;;;17.07;100.00
32320;BME280;19080;51.750;5.888;2023-08-31T12:16:51;100861.06;;;17.32;100.00
32320;BME280;19080;51.750;5.888;2023-08-31T12:19:18;100846.19;;;17.04;100.00
32320;BME280;19080;51.750;5.888;2023-08-31T12:21:46;100788.63;;;16.52;100.00
32320;BME280;19080;51.750;5.888;2023-08-31T12:24:12;100848.16;;;16.86;100.00
32320;BME280;19080;51.750;5.888;2023-08-31T12:26:40;100859.56;;;17.07;100.00
32320;BME280;19080;51.750;5.888;2023-08-31T12:29:06;100857.63;;;17.19;100.00
32320;BME280;19080;51.750;5.888;2023-08-31T12:31:33;100860.63;;;17.63;100.00
32320;BME280;19080;51.750;5.888;2023-08-31T12:34:00;100811.28;;;17.74;100.00
32320;BME280;19080;51.750;5.888;2023-08-31T12:36:31;100808.72;;;19.19;100.00
32320;BME280;19080;51.750;5.888;2023-08-31T12:38:59;100798.78;;;21.36;100.00
32320;BME280;19080;51.750;5.888;2023-08-31T12:41:28;100837.34;;;21.70;100.00
32320;BME280;19080;51.750;5.888;2023-08-31T12:43:55;100863.59;;;21.36;100.00
32320;BME280;19080;51.750;5.888;2023-08-31T12:46:22;100851.09;;;20.67;100.00
32320;BME280;19080;51.750;5.888;2023-08-31T12:48:48;100865.41;;;20.33;100.00
32320;BME280;19080;51.750;5.888;2023-08-31T12:51:17;100864.44;;;19.99;100.00
32320;BME280;19080;51.750;5.888;2023-08-31T12:53:44;100858.59;;;19.80;100.00
32320;BME280;19080;51.750;5.888;2023-08-31T12:56:12;100867.28;;;19.93;100.00
32320;BME280;19080;51.750;5.888;2023-08-31T12:58:40;100867.94;;;20.02;100.00
32320;BME280;19080;51.750;5.888;2023-08-31T13:01:06;100867.28;;;20.30;100.00
32320;BME280;19080;51.750;5.888;2023-08-31T13:03:34;100860.81;;;20.37;100.00
32320;BME280;19080;51.750;5.888;2023-08-31T13:06:01;100837.97;;;21.18;100.00
32320;BME280;19080;51.750;5.888;2023-08-31T13:08:28;100787.97;;;21.05;100.00